sensor_id;sensor_type;location;lat;lon;timestamp;P1;durP1;ratioP1;P2;durP2;ratioP2
5054;SDS011;13829;48.990;8.346;2023-05-07T00:01:39;6.43;;;4.50;;
5054;SDS011;13829;48.990;8.346;2023-05-07T00:04:05;7.30;;;5.33;;
5054;SDS011;13829;48.990;8.346;2023-05-07T00:06:32;9.00;;;6.47;;
5054;SDS011;13829;48.990;8.346;2023-05-07T00:08:59;7.77;;;5.80;;
5054;SDS011;13829;48.990;8.346;2023-05-07T00:11:26;6.07;;;5.17;;
5054;SDS011;13829;48.990;8.346;2023-05-07T00:13:54;6.70;;;4.70;;
5054;SDS011;13829;48.990;8.346;2023-05-07T00:16:22;5.80;;;4.50;;
5054;SDS011;13829;48.990;8.346;2023-05-07T00:18:49;5.37;;;4.50;;
5054;SDS011;13829;48.990;8.346;2023-05-07T00:21:16;7.60;;;4.63;;
5054;SDS011;13829;48.990;8.346;2023-05-07T00:23:43;6.30;;;5.30;;
5054;SDS011;13829;48.990;8.346;2023-05-07T00:26:10;6.00;;;5.37;;
5054;SDS011;13829;48.990;8.346;2023-05-07T00:28:37;6.50;;;4.97;;
5054;SDS011;13829;48.990;8.346;2023-05-07T00:31:04;5.70;;;4.70;;
5054;SDS011;13829;48.990;8.346;2023-05-07T00:33:32;6.93;;;5.43;;
5054;SDS011;13829;48.990;8.346;2023-05-07T00:35:59;4.73;;;4.07;;
5054;SDS011;13829;48.990;8.346;2023-05-07T00:38:27;5.47;;;4.27;;
5054;SDS011;13829;48.990;8.346;2023-05-07T00:40:53;4.80;;;3.93;;
5054;SDS011;13829;48.990;8.346;2023-05-07T00:43:20;3.80;;;3.40;;
5054;SDS011;13829;48.990;8.346;2023-05-07T00:45:47;4.03;;;3.63;;
5054;SDS011;13829;48.990;8.346;2023-05-07T00:48:15;5.70;;;4.30;;
5054;SDS011;13829;48.990;8.346;2023-05-07T00:50:44;5.73;;;4.27;;
5054;SDS011;13829;48.990;8.346;2023-05-07T00:53:12;4.50;;;4.00;;
5054;SDS011;13829;48.990;8.346;2023-05-07T00:55:39;5.30;;;3.93;;
5054;SDS011;13829;48.990;8.346;2023-05-07T00:58:06;6.13;;;3.93;;
5054;SDS011;13829;48.990;8.346;2023-05-07T01:00:34;5.63;;;4.43;;
5054;SDS011;13829;48.990;8.346;2023-05-07T01:03:01;5.57;;;3.90;;
5054;SDS011;13829;48.990;8.346;2023-05-07T01:05:29;5.73;;;3.80;;
5054;SDS011;13829;48.990;8.346;2023-05-07T01:07:57;3.87;;;3.43;;
5054;SDS011;13829;48.990;8.346;2023-05-07T01:10:26;4.77;;;3.83;;
5054;SDS011;13829;48.990;8.346;2023-05-07T01:12:55;5.83;;;3.63;;
5054;SDS011;13829;48.990;8.346;2023-05-07T01:15:25;4.70;;;3.77;;
5054;SDS011;13829;48.990;8.346;2023-05-07T01:17:52;4.00;;;3.60;;
5054;SDS011;13829;48.990;8.346;2023-05-07T01:20:19;6.43;;;4.10;;
5054;SDS011;13829;48.990;8.346;2023-05-07T01:22:48;4.10;;;3.30;;
5054;SDS011;13829;48.990;8.346;2023-05-07T01:25:16;4.37;;;3.77;;
5054;SDS011;13829;48.990;8.346;2023-05-07T01:27:44;5.10;;;3.37;;
5054;SDS011;13829;48.990;8.346;2023-05-07T01:30:11;4.47;;;3.60;;
5054;SDS011;13829;48.990;8.346;2023-05-07T01:32:40;3.10;;;2.77;;
5054;SDS011;13829;48.990;8.346;2023-05-07T01:35:15;4.23;;;3.80;;
5054;SDS011;13829;48.990;8.346;2023-05-07T01:37:48;4.43;;;3.53;;
5054;SDS011;13829;48.990;8.346;2023-05-07T01:40:16;5.27;;;3.20;;
5054;SDS011;13829;48.990;8.346;2023-05-07T01:42:44;3.70;;;3.20;;
5054;SDS011;13829;48.990;8.346;2023-05-07T01:45:13;4.60;;;3.50;;
5054;SDS011;13829;48.990;8.346;2023-05-07T01:47:40;5.23;;;3.77;;
5054;SDS011;13829;48.990;8.346;2023-05-07T01:50:09;4.90;;;3.73;;
5054;SDS011;13829;48.990;8.346;2023-05-07T01:52:36;5.30;;;3.43;;
5054;SDS011;13829;48.990;8.346;2023-05-07T01:55:06;3.83;;;3.40;;
5054;SDS011;13829;48.990;8.346;2023-05-07T01:57:34;6.47;;;3.80;;
5054;SDS011;13829;48.990;8.346;2023-05-07T02:00:01;5.07;;;3.93;;
5054;SDS011;13829;48.990;8.346;2023-05-07T02:02:30;8.07;;;4.20;;
5054;SDS011;13829;48.990;8.346;2023-05-07T02:04:57;6.53;;;4.07;;
5054;SDS011;13829;48.990;8.346;2023-05-07T02:07:25;5.07;;;4.27;;
5054;SDS011;13829;48.990;8.346;2023-05-07T02:09:52;4.53;;;4.13;;
5054;SDS011;13829;48.990;8.346;2023-05-07T02:12:21;5.13;;;4.17;;
5054;SDS011;13829;48.990;8.346;2023-05-07T02:14:49;4.13;;;3.73;;
5054;SDS011;13829;48.990;8.346;2023-05-07T02:17:16;4.50;;;4.10;;
5054;SDS011;13829;48.990;8.346;2023-05-07T02:19:43;4.33;;;3.93;;
5054;SDS011;13829;48.990;8.346;2023-05-07T02:22:10;4.70;;;4.30;;
5054;SDS011;13829;48.990;8.346;2023-05-07T02:24:37;4.43;;;4.03;;
5054;SDS011;13829;48.990;8.346;2023-05-07T02:27:04;6.87;;;4.37;;
5054;SDS011;13829;48.990;8.346;2023-05-07T02:29:32;5.57;;;3.63;;
5054;SDS011;13829;48.990;8.346;2023-05-07T02:31:59;6.00;;;4.30;;
5054;SDS011;13829;48.990;8.346;2023-05-07T02:34:26;4.77;;;4.13;;
5054;SDS011;13829;48.990;8.346;2023-05-07T02:36:53;6.03;;;4.30;;
5054;SDS011;13829;48.990;8.346;2023-05-07T02:39:20;6.07;;;4.30;;
5054;SDS011;13829;48.990;8.346;2023-05-07T02:41:47;5.57;;;4.60;;
5054;SDS011;13829;48.990;8.346;2023-05-07T02:44:14;5.63;;;3.93;;
5054;SDS011;13829;48.990;8.346;2023-05-07T02:46:43;6.53;;;4.30;;
5054;SDS011;13829;48.990;8.346;2023-05-07T02:49:09;6.13;;;4.30;;
5054;SDS011;13829;48.990;8.346;2023-05-07T02:51:36;5.33;;;3.97;;
5054;SDS011;13829;48.990;8.346;2023-05-07T02:54:03;6.60;;;4.50;;
5054;SDS011;13829;48.990;8.346;2023-05-07T02:56:30;4.43;;;4.03;;
5054;SDS011;13829;48.990;8.346;2023-05-07T02:58:57;7.47;;;4.73;;
5054;SDS011;13829;48.990;8.346;2023-05-07T03:01:24;9.23;;;4.50;;
5054;SDS011;13829;48.990;8.346;2023-05-07T03:03:53;5.77;;;4.67;;
5054;SDS011;13829;48.990;8.346;2023-05-07T03:06:20;4.13;;;3.80;;
5054;SDS011;13829;48.990;8.346;2023-05-07T03:08:47;5.73;;;3.90;;
5054;SDS011;13829;48.990;8.346;2023-05-07T03:11:14;5.10;;;4.33;;
5054;SDS011;13829;48.990;8.346;2023-05-07T03:13:40;4.57;;;4.17;;
5054;SDS011;13829;48.990;8.346;2023-05-07T03:16:07;5.00;;;4.07;;
5054;SDS011;13829;48.990;8.346;2023-05-07T03:18:34;5.50;;;3.63;;
5054;SDS011;13829;48.990;8.346;2023-05-07T03:21:03;5.30;;;4.37;;
5054;SDS011;13829;48.990;8.346;2023-05-07T03:23:30;5.30;;;4.03;;
5054;SDS011;13829;48.990;8.346;2023-05-07T03:25:56;6.47;;;4.13;;
5054;SDS011;13829;48.990;8.346;2023-05-07T03:28:23;7.20;;;4.20;;
5054;SDS011;13829;48.990;8.346;2023-05-07T03:30:50;6.87;;;4.80;;
5054;SDS011;13829;48.990;8.346;2023-05-07T03:33:17;5.87;;;4.13;;
5054;SDS011;13829;48.990;8.346;2023-05-07T03:35:44;4.23;;;3.83;;
5054;SDS011;13829;48.990;8.346;2023-05-07T03:38:12;4.90;;;4.40;;
5054;SDS011;13829;48.990;8.346;2023-05-07T03:40:39;5.63;;;4.67;;
5054;SDS011;13829;48.990;8.346;2023-05-07T03:43:06;4.53;;;4.13;;
5054;SDS011;13829;48.990;8.346;2023-05-07T03:45:34;4.47;;;4.03;;
5054;SDS011;13829;48.990;8.346;2023-05-07T03:48:00;4.70;;;4.30;;
5054;SDS011;13829;48.990;8.346;2023-05-07T03:50:28;5.30;;;4.27;;
5054;SDS011;13829;48.990;8.346;2023-05-07T03:52:55;4.90;;;4.20;;
5054;SDS011;13829;48.990;8.346;2023-05-07T03:55:23;5.00;;;3.90;;
5054;SDS011;13829;48.990;8.346;2023-05-07T03:57:50;7.00;;;4.67;;
5054;SDS011;13829;48.990;8.346;2023-05-07T04:00:17;4.30;;;3.90;;
5054;SDS011;13829;48.990;8.346;2023-05-07T04:02:45;4.23;;;3.83;;
5054;SDS011;13829;48.990;8.346;2023-05-07T04:05:12;4.73;;;3.70;;
5054;SDS011;13829;48.990;8.346;2023-05-07T04:07:40;5.77;;;4.13;;
5054;SDS011;13829;48.990;8.346;2023-05-07T04:10:07;4.73;;;4.20;;
5054;SDS011;13829;48.990;8.346;2023-05-07T04:12:37;5.50;;;3.97;;
5054;SDS011;13829;48.990;8.346;2023-05-07T04:15:04;3.93;;;3.63;;
5054;SDS011;13829;48.990;8.346;2023-05-07T04:17:32;8.67;;;4.20;;
5054;SDS011;13829;48.990;8.346;2023-05-07T04:19:58;4.13;;;3.80;;
5054;SDS011;13829;48.990;8.346;2023-05-07T04:22:25;5.13;;;4.33;;
5054;SDS011;13829;48.990;8.346;2023-05-07T04:24:52;5.50;;;4.23;;
5054;SDS011;13829;48.990;8.346;2023-05-07T04:27:19;5.37;;;4.10;;
5054;SDS011;13829;48.990;8.346;2023-05-07T04:29:48;5.07;;;4.47;;
5054;SDS011;13829;48.990;8.346;2023-05-07T04:32:15;6.43;;;4.57;;
5054;SDS011;13829;48.990;8.346;2023-05-07T04:34:42;5.33;;;4.33;;
5054;SDS011;13829;48.990;8.346;2023-05-07T04:37:09;5.40;;;4.57;;
5054;SDS011;13829;48.990;8.346;2023-05-07T04:39:36;5.10;;;4.60;;
5054;SDS011;13829;48.990;8.346;2023-05-07T04:42:03;6.40;;;4.37;;
5054;SDS011;13829;48.990;8.346;2023-05-07T04:44:32;6.73;;;4.87;;
5054;SDS011;13829;48.990;8.346;2023-05-07T04:47:01;5.17;;;4.37;;
5054;SDS011;13829;48.990;8.346;2023-05-07T04:49:27;5.97;;;4.13;;
5054;SDS011;13829;48.990;8.346;2023-05-07T04:51:54;4.90;;;4.40;;
5054;SDS011;13829;48.990;8.346;2023-05-07T04:54:21;5.37;;;4.90;;
5054;SDS011;13829;48.990;8.346;2023-05-07T04:56:48;4.37;;;3.97;;
5054;SDS011;13829;48.990;8.346;2023-05-07T04:59:15;5.40;;;4.73;;
5054;SDS011;13829;48.990;8.346;2023-05-07T05:01:42;4.77;;;4.33;;
5054;SDS011;13829;48.990;8.346;2023-05-07T05:04:10;5.37;;;3.67;;
5054;SDS011;13829;48.990;8.346;2023-05-07T05:06:38;5.53;;;4.57;;
5054;SDS011;13829;48.990;8.346;2023-05-07T05:09:05;6.43;;;3.73;;
5054;SDS011;13829;48.990;8.346;2023-05-07T05:11:32;8.60;;;4.50;;
5054;SDS011;13829;48.990;8.346;2023-05-07T05:13:59;4.60;;;4.20;;
5054;SDS011;13829;48.990;8.346;2023-05-07T05:16:27;5.90;;;4.37;;
5054;SDS011;13829;48.990;8.346;2023-05-07T05:18:54;5.10;;;4.60;;
5054;SDS011;13829;48.990;8.346;2023-05-07T05:21:22;5.13;;;4.40;;
5054;SDS011;13829;48.990;8.346;2023-05-07T05:23:49;4.43;;;4.03;;
5054;SDS011;13829;48.990;8.346;2023-05-07T05:26:16;5.20;;;4.07;;
5054;SDS011;13829;48.990;8.346;2023-05-07T05:28:43;5.07;;;4.23;;
5054;SDS011;13829;48.990;8.346;2023-05-07T05:31:10;4.43;;;4.03;;
5054;SDS011;13829;48.990;8.346;2023-05-07T05:33:39;5.10;;;4.10;;
5054;SDS011;13829;48.990;8.346;2023-05-07T05:36:06;4.40;;;4.00;;
5054;SDS011;13829;48.990;8.346;2023-05-07T05:38:37;4.37;;;3.97;;
5054;SDS011;13829;48.990;8.346;2023-05-07T05:41:04;4.43;;;4.03;;
5054;SDS011;13829;48.990;8.346;2023-05-07T05:43:31;4.50;;;4.10;;
5054;SDS011;13829;48.990;8.346;2023-05-07T05:45:58;4.70;;;4.30;;
5054;SDS011;13829;48.990;8.346;2023-05-07T05:48:25;4.53;;;3.93;;
5054;SDS011;13829;48.990;8.346;2023-05-07T05:50:52;4.77;;;3.80;;
5054;SDS011;13829;48.990;8.346;2023-05-07T05:53:19;5.80;;;4.17;;
5054;SDS011;13829;48.990;8.346;2023-05-07T05:55:47;4.33;;;3.93;;
5054;SDS011;13829;48.990;8.346;2023-05-07T05:58:16;5.10;;;4.00;;
5054;SDS011;13829;48.990;8.346;2023-05-07T06:00:43;4.40;;;4.00;;
5054;SDS011;13829;48.990;8.346;2023-05-07T06:03:10;4.40;;;4.00;;
5054;SDS011;13829;48.990;8.346;2023-05-07T06:05:37;5.77;;;4.03;;
5054;SDS011;13829;48.990;8.346;2023-05-07T06:08:04;4.70;;;4.20;;
5054;SDS011;13829;48.990;8.346;2023-05-07T06:10:31;6.43;;;4.30;;
5054;SDS011;13829;48.990;8.346;2023-05-07T06:13:00;4.40;;;3.80;;
5054;SDS011;13829;48.990;8.346;2023-05-07T06:15:26;5.80;;;3.80;;
5054;SDS011;13829;48.990;8.346;2023-05-07T06:17:53;4.20;;;3.67;;
5054;SDS011;13829;48.990;8.346;2023-05-07T06:20:22;6.10;;;3.67;;
5054;SDS011;13829;48.990;8.346;2023-05-07T06:22:49;4.10;;;3.70;;
5054;SDS011;13829;48.990;8.346;2023-05-07T06:25:16;6.43;;;4.43;;
5054;SDS011;13829;48.990;8.346;2023-05-07T06:27:43;5.07;;;3.70;;
5054;SDS011;13829;48.990;8.346;2023-05-07T06:30:12;4.53;;;3.37;;
5054;SDS011;13829;48.990;8.346;2023-05-07T06:32:40;4.37;;;3.70;;
5054;SDS011;13829;48.990;8.346;2023-05-07T06:35:07;5.10;;;3.47;;
5054;SDS011;13829;48.990;8.346;2023-05-07T06:37:35;3.50;;;3.20;;
5054;SDS011;13829;48.990;8.346;2023-05-07T06:40:03;4.10;;;3.33;;
5054;SDS011;13829;48.990;8.346;2023-05-07T06:42:32;4.00;;;3.45;;
5054;SDS011;13829;48.990;8.346;2023-05-07T06:44:59;3.80;;;3.40;;
5054;SDS011;13829;48.990;8.346;2023-05-07T06:47:27;4.88;;;3.45;;
5054;SDS011;13829;48.990;8.346;2023-05-07T06:49:54;4.30;;;3.35;;
5054;SDS011;13829;48.990;8.346;2023-05-07T06:52:21;4.72;;;3.25;;
5054;SDS011;13829;48.990;8.346;2023-05-07T06:54:48;4.45;;;3.28;;
5054;SDS011;13829;48.990;8.346;2023-05-07T06:57:15;4.03;;;3.25;;
5054;SDS011;13829;48.990;8.346;2023-05-07T06:59:42;3.60;;;3.30;;
5054;SDS011;13829;48.990;8.346;2023-05-07T07:02:09;4.65;;;3.47;;
5054;SDS011;13829;48.990;8.346;2023-05-07T07:04:37;4.63;;;2.85;;
5054;SDS011;13829;48.990;8.346;2023-05-07T07:07:04;3.05;;;2.75;;
5054;SDS011;13829;48.990;8.346;2023-05-07T07:09:31;6.35;;;2.95;;
5054;SDS011;13829;48.990;8.346;2023-05-07T07:11:57;4.80;;;3.03;;
5054;SDS011;13829;48.990;8.346;2023-05-07T07:14:25;4.43;;;2.88;;
5054;SDS011;13829;48.990;8.346;2023-05-07T07:16:51;3.83;;;2.97;;
5054;SDS011;13829;48.990;8.346;2023-05-07T07:19:18;3.38;;;2.33;;
5054;SDS011;13829;48.990;8.346;2023-05-07T07:21:47;3.38;;;2.80;;
5054;SDS011;13829;48.990;8.346;2023-05-07T07:24:14;6.05;;;3.00;;
5054;SDS011;13829;48.990;8.346;2023-05-07T07:26:45;4.78;;;3.30;;
5054;SDS011;13829;48.990;8.346;2023-05-07T07:29:12;2.95;;;2.67;;
5054;SDS011;13829;48.990;8.346;2023-05-07T07:31:39;3.65;;;2.92;;
5054;SDS011;13829;48.990;8.346;2023-05-07T07:34:06;3.35;;;2.85;;
5054;SDS011;13829;48.990;8.346;2023-05-07T07:36:33;7.97;;;5.03;;
5054;SDS011;13829;48.990;8.346;2023-05-07T07:39:01;4.07;;;3.30;;
5054;SDS011;13829;48.990;8.346;2023-05-07T07:41:29;6.03;;;3.50;;
5054;SDS011;13829;48.990;8.346;2023-05-07T07:43:56;3.28;;;2.70;;
5054;SDS011;13829;48.990;8.346;2023-05-07T07:46:23;4.55;;;2.80;;
5054;SDS011;13829;48.990;8.346;2023-05-07T07:48:51;3.88;;;2.70;;
5054;SDS011;13829;48.990;8.346;2023-05-07T07:51:19;3.15;;;2.85;;
5054;SDS011;13829;48.990;8.346;2023-05-07T07:53:46;4.18;;;3.00;;
5054;SDS011;13829;48.990;8.346;2023-05-07T07:56:14;2.95;;;2.63;;
5054;SDS011;13829;48.990;8.346;2023-05-07T07:58:41;4.97;;;2.67;;
5054;SDS011;13829;48.990;8.346;2023-05-07T08:01:08;2.47;;;2.28;;
5054;SDS011;13829;48.990;8.346;2023-05-07T08:03:35;2.90;;;2.58;;
5054;SDS011;13829;48.990;8.346;2023-05-07T08:06:03;3.40;;;2.83;;
5054;SDS011;13829;48.990;8.346;2023-05-07T08:08:30;4.22;;;2.97;;
5054;SDS011;13829;48.990;8.346;2023-05-07T08:10:57;2.63;;;2.40;;
5054;SDS011;13829;48.990;8.346;2023-05-07T08:13:25;3.67;;;2.90;;
5054;SDS011;13829;48.990;8.346;2023-05-07T08:15:52;4.05;;;2.72;;
5054;SDS011;13829;48.990;8.346;2023-05-07T08:18:19;6.00;;;2.25;;
5054;SDS011;13829;48.990;8.346;2023-05-07T08:20:46;3.05;;;2.53;;
5054;SDS011;13829;48.990;8.346;2023-05-07T08:23:13;3.83;;;2.72;;
5054;SDS011;13829;48.990;8.346;2023-05-07T08:25:40;3.95;;;2.67;;
5054;SDS011;13829;48.990;8.346;2023-05-07T08:28:07;3.53;;;2.80;;
5054;SDS011;13829;48.990;8.346;2023-05-07T08:30:36;4.70;;;2.92;;
5054;SDS011;13829;48.990;8.346;2023-05-07T08:33:03;4.72;;;2.70;;
5054;SDS011;13829;48.990;8.346;2023-05-07T08:35:30;3.42;;;2.60;;
5054;SDS011;13829;48.990;8.346;2023-05-07T08:37:57;3.10;;;2.10;;
5054;SDS011;13829;48.990;8.346;2023-05-07T08:40:24;3.42;;;3.13;;
5054;SDS011;13829;48.990;8.346;2023-05-07T08:42:52;3.80;;;3.10;;
5054;SDS011;13829;48.990;8.346;2023-05-07T08:45:20;3.92;;;3.00;;
5054;SDS011;13829;48.990;8.346;2023-05-07T08:47:50;3.63;;;3.15;;
5054;SDS011;13829;48.990;8.346;2023-05-07T08:50:24;3.53;;;3.22;;
5054;SDS011;13829;48.990;8.346;2023-05-07T08:52:51;3.15;;;2.83;;
5054;SDS011;13829;48.990;8.346;2023-05-07T08:55:18;3.70;;;3.17;;
5054;SDS011;13829;48.990;8.346;2023-05-07T08:57:47;4.45;;;2.90;;
5054;SDS011;13829;48.990;8.346;2023-05-07T09:00:15;4.35;;;2.88;;
5054;SDS011;13829;48.990;8.346;2023-05-07T09:02:42;4.25;;;3.20;;
5054;SDS011;13829;48.990;8.346;2023-05-07T09:05:11;5.07;;;2.53;;
5054;SDS011;13829;48.990;8.346;2023-05-07T09:07:38;3.50;;;3.20;;
5054;SDS011;13829;48.990;8.346;2023-05-07T09:10:05;4.38;;;3.50;;
5054;SDS011;13829;48.990;8.346;2023-05-07T09:12:35;3.40;;;3.10;;
5054;SDS011;13829;48.990;8.346;2023-05-07T09:15:07;6.05;;;3.30;;
5054;SDS011;13829;48.990;8.346;2023-05-07T09:17:43;6.90;;;3.25;;
5054;SDS011;13829;48.990;8.346;2023-05-07T09:20:13;5.18;;;3.25;;
5054;SDS011;13829;48.990;8.346;2023-05-07T09:22:42;5.10;;;3.00;;
5054;SDS011;13829;48.990;8.346;2023-05-07T09:25:10;3.40;;;3.08;;
5054;SDS011;13829;48.990;8.346;2023-05-07T09:27:37;4.05;;;3.10;;
5054;SDS011;13829;48.990;8.346;2023-05-07T09:30:05;3.45;;;2.92;;
5054;SDS011;13829;48.990;8.346;2023-05-07T09:32:34;5.30;;;2.97;;
5054;SDS011;13829;48.990;8.346;2023-05-07T09:35:03;3.88;;;3.08;;
5054;SDS011;13829;48.990;8.346;2023-05-07T09:37:32;5.38;;;2.63;;
5054;SDS011;13829;48.990;8.346;2023-05-07T09:39:59;4.72;;;2.75;;
5054;SDS011;13829;48.990;8.346;2023-05-07T09:42:26;3.05;;;2.53;;
5054;SDS011;13829;48.990;8.346;2023-05-07T09:44:54;2.75;;;2.53;;
5054;SDS011;13829;48.990;8.346;2023-05-07T09:47:22;2.92;;;2.38;;
5054;SDS011;13829;48.990;8.346;2023-05-07T09:49:52;2.95;;;2.30;;
5054;SDS011;13829;48.990;8.346;2023-05-07T09:52:23;4.05;;;3.20;;
5054;SDS011;13829;48.990;8.346;2023-05-07T09:54:59;3.10;;;2.83;;
5054;SDS011;13829;48.990;8.346;2023-05-07T09:57:28;3.05;;;2.75;;
5054;SDS011;13829;48.990;8.346;2023-05-07T09:59:56;2.75;;;2.42;;
5054;SDS011;13829;48.990;8.346;2023-05-07T10:02:26;4.75;;;2.85;;
5054;SDS011;13829;48.990;8.346;2023-05-07T10:04:57;3.67;;;2.58;;
5054;SDS011;13829;48.990;8.346;2023-05-07T10:07:26;5.07;;;3.35;;
5054;SDS011;13829;48.990;8.346;2023-05-07T10:09:55;5.30;;;3.20;;
5054;SDS011;13829;48.990;8.346;2023-05-07T10:12:25;3.65;;;2.70;;
5054;SDS011;13829;48.990;8.346;2023-05-07T10:14:53;4.35;;;2.60;;
5054;SDS011;13829;48.990;8.346;2023-05-07T10:17:22;3.28;;;2.97;;
5054;SDS011;13829;48.990;8.346;2023-05-07T10:19:50;2.85;;;2.55;;
5054;SDS011;13829;48.990;8.346;2023-05-07T10:22:19;4.13;;;2.55;;
5054;SDS011;13829;48.990;8.346;2023-05-07T10:24:48;3.83;;;2.70;;
5054;SDS011;13829;48.990;8.346;2023-05-07T10:27:18;4.38;;;2.72;;
5054;SDS011;13829;48.990;8.346;2023-05-07T10:29:52;3.13;;;2.53;;
5054;SDS011;13829;48.990;8.346;2023-05-07T10:32:35;3.50;;;3.00;;
5054;SDS011;13829;48.990;8.346;2023-05-07T10:35:09;4.22;;;2.50;;
5054;SDS011;13829;48.990;8.346;2023-05-07T10:37:44;2.75;;;2.55;;
5054;SDS011;13829;48.990;8.346;2023-05-07T10:40:12;3.83;;;2.65;;
5054;SDS011;13829;48.990;8.346;2023-05-07T10:42:52;4.05;;;2.55;;
5054;SDS011;13829;48.990;8.346;2023-05-07T10:45:23;11.13;;;2.53;;
5054;SDS011;13829;48.990;8.346;2023-05-07T10:48:10;2.65;;;2.45;;
5054;SDS011;13829;48.990;8.346;2023-05-07T10:50:39;5.55;;;2.67;;
5054;SDS011;13829;48.990;8.346;2023-05-07T10:53:20;3.47;;;2.70;;
5054;SDS011;13829;48.990;8.346;2023-05-07T10:55:51;4.55;;;2.75;;
5054;SDS011;13829;48.990;8.346;2023-05-07T10:58:52;3.40;;;2.60;;
5054;SDS011;13829;48.990;8.346;2023-05-07T11:04:20;3.17;;;2.78;;
5054;SDS011;13829;48.990;8.346;2023-05-07T11:07:14;4.85;;;2.42;;
5054;SDS011;13829;48.990;8.346;2023-05-07T11:10:00;4.32;;;2.55;;
5054;SDS011;13829;48.990;8.346;2023-05-07T11:12:51;3.53;;;2.92;;
5054;SDS011;13829;48.990;8.346;2023-05-07T11:18:09;3.90;;;2.53;;
5054;SDS011;13829;48.990;8.346;2023-05-07T11:20:51;3.45;;;2.90;;
5054;SDS011;13829;48.990;8.346;2023-05-07T11:26:23;2.17;;;2.00;;
5054;SDS011;13829;48.990;8.346;2023-05-07T11:28:51;3.63;;;2.53;;
5054;SDS011;13829;48.990;8.346;2023-05-07T11:31:20;2.65;;;2.45;;
5054;SDS011;13829;48.990;8.346;2023-05-07T11:33:52;3.00;;;2.70;;
5054;SDS011;13829;48.990;8.346;2023-05-07T11:36:21;3.90;;;2.65;;
5054;SDS011;13829;48.990;8.346;2023-05-07T11:38:50;5.22;;;2.90;;
5054;SDS011;13829;48.990;8.346;2023-05-07T11:41:17;3.28;;;2.58;;
5054;SDS011;13829;48.990;8.346;2023-05-07T11:43:56;4.28;;;3.15;;
5054;SDS011;13829;48.990;8.346;2023-05-07T11:46:25;2.60;;;2.40;;
5054;SDS011;13829;48.990;8.346;2023-05-07T11:48:55;5.72;;;3.10;;
5054;SDS011;13829;48.990;8.346;2023-05-07T11:51:23;3.10;;;2.83;;
5054;SDS011;13829;48.990;8.346;2023-05-07T11:53:52;4.13;;;2.58;;
5054;SDS011;13829;48.990;8.346;2023-05-07T11:56:19;3.75;;;2.83;;
5054;SDS011;13829;48.990;8.346;2023-05-07T11:58:47;4.35;;;2.88;;
5054;SDS011;13829;48.990;8.346;2023-05-07T12:01:15;3.08;;;2.72;;
5054;SDS011;13829;48.990;8.346;2023-05-07T12:03:45;3.63;;;2.55;;
5054;SDS011;13829;48.990;8.346;2023-05-07T12:06:14;3.13;;;2.83;;
5054;SDS011;13829;48.990;8.346;2023-05-07T12:08:43;5.25;;;2.50;;
5054;SDS011;13829;48.990;8.346;2023-05-07T12:11:12;3.70;;;2.78;;
5054;SDS011;13829;48.990;8.346;2023-05-07T12:13:43;4.18;;;3.25;;
5054;SDS011;13829;48.990;8.346;2023-05-07T12:16:10;3.65;;;2.67;;
5054;SDS011;13829;48.990;8.346;2023-05-07T12:18:38;4.07;;;2.83;;
5054;SDS011;13829;48.990;8.346;2023-05-07T12:21:06;3.50;;;2.40;;
5054;SDS011;13829;48.990;8.346;2023-05-07T12:23:36;3.47;;;3.00;;
5054;SDS011;13829;48.990;8.346;2023-05-07T12:26:04;4.07;;;2.70;;
5054;SDS011;13829;48.990;8.346;2023-05-07T12:28:36;4.28;;;2.50;;
5054;SDS011;13829;48.990;8.346;2023-05-07T12:31:04;4.22;;;2.88;;
5054;SDS011;13829;48.990;8.346;2023-05-07T12:33:31;2.90;;;2.63;;
5054;SDS011;13829;48.990;8.346;2023-05-07T12:36:02;3.72;;;2.47;;
5054;SDS011;13829;48.990;8.346;2023-05-07T12:38:34;3.40;;;3.03;;
5054;SDS011;13829;48.990;8.346;2023-05-07T12:41:05;2.88;;;2.60;;
5054;SDS011;13829;48.990;8.346;2023-05-07T12:43:34;3.40;;;2.67;;
5054;SDS011;13829;48.990;8.346;2023-05-07T12:46:03;2.95;;;2.75;;
5054;SDS011;13829;48.990;8.346;2023-05-07T12:48:32;4.32;;;2.80;;
5054;SDS011;13829;48.990;8.346;2023-05-07T12:51:02;5.03;;;2.78;;
5054;SDS011;13829;48.990;8.346;2023-05-07T12:53:32;5.32;;;3.03;;
5054;SDS011;13829;48.990;8.346;2023-05-07T12:56:03;6.22;;;2.80;;
5054;SDS011;13829;48.990;8.346;2023-05-07T12:58:33;3.30;;;2.60;;
5054;SDS011;13829;48.990;8.346;2023-05-07T13:01:04;5.57;;;3.13;;
5054;SDS011;13829;48.990;8.346;2023-05-07T13:03:35;3.53;;;2.60;;
5054;SDS011;13829;48.990;8.346;2023-05-07T13:06:06;4.38;;;3.53;;
5054;SDS011;13829;48.990;8.346;2023-05-07T13:08:38;5.57;;;4.57;;
5054;SDS011;13829;48.990;8.346;2023-05-07T13:11:10;4.47;;;4.07;;
5054;SDS011;13829;48.990;8.346;2023-05-07T13:13:38;5.57;;;4.38;;
5054;SDS011;13829;48.990;8.346;2023-05-07T13:16:07;6.82;;;3.90;;
5054;SDS011;13829;48.990;8.346;2023-05-07T13:18:37;4.13;;;3.70;;
5054;SDS011;13829;48.990;8.346;2023-05-07T13:21:06;5.15;;;3.85;;
5054;SDS011;13829;48.990;8.346;2023-05-07T13:23:33;3.75;;;3.10;;
5054;SDS011;13829;48.990;8.346;2023-05-07T13:26:00;4.25;;;3.25;;
5054;SDS011;13829;48.990;8.346;2023-05-07T13:28:28;3.55;;;3.08;;
5054;SDS011;13829;48.990;8.346;2023-05-07T13:30:55;4.90;;;3.15;;
5054;SDS011;13829;48.990;8.346;2023-05-07T13:33:22;6.57;;;3.75;;
5054;SDS011;13829;48.990;8.346;2023-05-07T13:35:49;5.68;;;3.85;;
5054;SDS011;13829;48.990;8.346;2023-05-07T13:38:16;5.47;;;3.20;;
5054;SDS011;13829;48.990;8.346;2023-05-07T13:40:43;3.95;;;2.88;;
5054;SDS011;13829;48.990;8.346;2023-05-07T13:43:10;5.95;;;3.22;;
5054;SDS011;13829;48.990;8.346;2023-05-07T13:45:38;4.65;;;3.10;;
5054;SDS011;13829;48.990;8.346;2023-05-07T13:48:05;4.05;;;3.13;;
5054;SDS011;13829;48.990;8.346;2023-05-07T13:50:32;4.38;;;2.80;;
5054;SDS011;13829;48.990;8.346;2023-05-07T13:52:59;3.00;;;2.40;;
5054;SDS011;13829;48.990;8.346;2023-05-07T13:55:28;8.70;;;2.30;;
5054;SDS011;13829;48.990;8.346;2023-05-07T13:57:56;2.50;;;2.30;;
5054;SDS011;13829;48.990;8.346;2023-05-07T14:00:24;4.75;;;3.00;;
5054;SDS011;13829;48.990;8.346;2023-05-07T14:02:54;4.25;;;3.13;;
5054;SDS011;13829;48.990;8.346;2023-05-07T14:05:22;3.45;;;3.03;;
5054;SDS011;13829;48.990;8.346;2023-05-07T14:07:49;6.70;;;5.10;;
5054;SDS011;13829;48.990;8.346;2023-05-07T14:10:17;5.97;;;4.57;;
5054;SDS011;13829;48.990;8.346;2023-05-07T14:12:45;8.27;;;4.82;;
5054;SDS011;13829;48.990;8.346;2023-05-07T14:15:12;7.95;;;4.72;;
5054;SDS011;13829;48.990;8.346;2023-05-07T14:17:39;8.77;;;5.03;;
5054;SDS011;13829;48.990;8.346;2023-05-07T14:20:08;6.75;;;4.50;;
5054;SDS011;13829;48.990;8.346;2023-05-07T14:22:36;6.88;;;4.13;;
5054;SDS011;13829;48.990;8.346;2023-05-07T14:25:03;7.07;;;4.68;;
5054;SDS011;13829;48.990;8.346;2023-05-07T14:27:31;4.82;;;4.15;;
5054;SDS011;13829;48.990;8.346;2023-05-07T14:29:58;5.30;;;4.53;;
5054;SDS011;13829;48.990;8.346;2023-05-07T14:32:25;6.15;;;5.50;;
5054;SDS011;13829;48.990;8.346;2023-05-07T14:34:52;6.53;;;5.32;;
5054;SDS011;13829;48.990;8.346;2023-05-07T14:37:20;4.45;;;3.30;;
5054;SDS011;13829;48.990;8.346;2023-05-07T14:39:47;2.22;;;2.03;;
5054;SDS011;13829;48.990;8.346;2023-05-07T14:42:14;3.90;;;1.90;;
5054;SDS011;13829;48.990;8.346;2023-05-07T14:44:41;2.72;;;1.73;;
5054;SDS011;13829;48.990;8.346;2023-05-07T14:47:09;2.00;;;1.80;;
5054;SDS011;13829;48.990;8.346;2023-05-07T14:49:36;3.55;;;2.13;;
5054;SDS011;13829;48.990;8.346;2023-05-07T14:52:05;3.38;;;1.48;;
5054;SDS011;13829;48.990;8.346;2023-05-07T14:54:36;1.60;;;1.50;;
5054;SDS011;13829;48.990;8.346;2023-05-07T14:57:04;2.53;;;1.60;;
5054;SDS011;13829;48.990;8.346;2023-05-07T14:59:32;1.50;;;1.40;;
5054;SDS011;13829;48.990;8.346;2023-05-07T15:02:00;2.33;;;1.90;;
5054;SDS011;13829;48.990;8.346;2023-05-07T15:04:27;2.25;;;1.50;;
5054;SDS011;13829;48.990;8.346;2023-05-07T15:06:54;2.58;;;1.90;;
5054;SDS011;13829;48.990;8.346;2023-05-07T15:09:21;2.92;;;1.88;;
5054;SDS011;13829;48.990;8.346;2023-05-07T15:11:50;4.10;;;2.00;;
5054;SDS011;13829;48.990;8.346;2023-05-07T15:14:16;2.90;;;2.08;;
5054;SDS011;13829;48.990;8.346;2023-05-07T15:16:44;3.30;;;2.40;;